createdAt,value
2022-07-27T00:02:41.788Z,101957.91
2022-07-27T00:08:03.637Z,101948.94
2022-07-27T00:13:25.399Z,101959.78
2022-07-27T00:18:47.136Z,101948.59
2022-07-27T00:24:08.961Z,101951.63
2022-07-27T00:29:30.644Z,101951.63
2022-07-27T00:34:52.417Z,101963.06
2022-07-27T00:40:14.629Z,101963.66
2022-07-27T00:45:36.503Z,101943.25
2022-07-27T00:50:58.187Z,101956.66
2022-07-27T00:56:20.743Z,101957.75
2022-07-27T01:01:43.482Z,101961.63
2022-07-27T01:07:06.652Z,101959.94
2022-07-27T01:12:30.587Z,101956.03
2022-07-27T01:17:52.294Z,101952.66
2022-07-27T01:23:14.000Z,101947.06
2022-07-27T01:28:35.721Z,101957.38
2022-07-27T01:33:57.904Z,101954.84
2022-07-27T01:39:19.972Z,101947.56
2022-07-27T01:44:41.650Z,101945.88
2022-07-27T01:50:04.028Z,101928.28
2022-07-27T01:55:25.781Z,101937.75
2022-07-27T02:00:49.494Z,101929.13
2022-07-27T02:06:11.188Z,101943.09
2022-07-27T02:11:51.138Z,101939.47
2022-07-27T02:17:12.798Z,101922.94
2022-07-27T02:22:34.567Z,101926.88
2022-07-27T02:27:56.272Z,101929.66
2022-07-27T02:33:18.145Z,101926.28
2022-07-27T02:38:40.159Z,101931.84
2022-07-27T02:44:01.823Z,101923.47
2022-07-27T02:49:23.678Z,101934.88
2022-07-27T02:54:45.484Z,101934.03
2022-07-27T03:00:13.178Z,101931.25
2022-07-27T03:05:34.902Z,101931.47
2022-07-27T03:10:56.590Z,101935.41
2022-07-27T03:16:18.354Z,101936.72
2022-07-27T03:21:40.155Z,101938.44
2022-07-27T03:27:02.141Z,101935.63
2022-07-27T03:32:23.971Z,101947.91
2022-07-27T03:37:45.665Z,101943.41
2022-07-27T03:43:07.967Z,101944.50
2022-07-27T03:48:29.770Z,101954.00
2022-07-27T03:53:51.536Z,101945.88
2022-07-27T03:59:13.842Z,101941.16
2022-07-27T04:04:35.828Z,101945.03
2022-07-27T04:09:57.515Z,101939.44
2022-07-27T04:15:19.224Z,101940.53
2022-07-27T04:20:41.022Z,101950.59
2022-07-27T04:26:02.717Z,101950.00
2022-07-27T04:31:24.598Z,101956.69
2022-07-27T04:36:46.553Z,101954.16
2022-07-27T04:42:08.659Z,101960.56
2022-07-27T04:47:30.378Z,101962.16
2022-07-27T04:52:52.091Z,101964.94
2022-07-27T04:58:14.830Z,101964.72
2022-07-27T05:03:36.512Z,101971.41
2022-07-27T05:08:58.463Z,101978.31
2022-07-27T05:14:21.575Z,101980.50
2022-07-27T05:19:43.550Z,101980.97
2022-07-27T05:25:05.877Z,101983.66
2022-07-27T05:30:27.657Z,101986.72
2022-07-27T05:35:51.043Z,101990.34
2022-07-27T05:41:12.762Z,101986.84
2022-07-27T05:46:34.973Z,101997.31
2022-07-27T05:51:57.221Z,101991.63
2022-07-27T05:57:18.983Z,101998.91
2022-07-27T06:02:41.285Z,101991.38
2022-07-27T06:08:08.719Z,101995.63
2022-07-27T06:13:31.751Z,101996.47
2022-07-27T06:18:53.493Z,101996.81
2022-07-27T06:24:15.250Z,101998.84
2022-07-27T06:29:36.928Z,102008.00
2022-07-27T06:35:00.330Z,101999.63
2022-07-27T06:40:24.443Z,101996.81
2022-07-27T06:45:48.812Z,101996.13
2022-07-27T06:51:10.604Z,102006.38
2022-07-27T06:56:33.036Z,102007.66
2022-07-27T07:01:54.704Z,102001.66
2022-07-27T07:07:16.402Z,102007.91
2022-07-27T07:12:38.082Z,102008.88
2022-07-27T07:17:59.771Z,102016.75
2022-07-27T07:23:24.469Z,102025.47
2022-07-27T07:28:46.177Z,102014.88
2022-07-27T07:34:07.910Z,102012.09
2022-07-27T07:39:31.669Z,102025.72
2022-07-27T07:44:53.517Z,102018.94
2022-07-27T07:50:15.684Z,102029.03
2022-07-27T07:55:37.492Z,102023.06
2022-07-27T08:00:59.271Z,102025.25
2022-07-27T08:06:20.976Z,102033.91
2022-07-27T08:11:43.219Z,102028.56
2022-07-27T08:17:04.985Z,102028.81
2022-07-27T08:22:26.699Z,102031.34
2022-07-27T08:27:48.436Z,102023.56
2022-07-27T08:33:10.208Z,102030.84
2022-07-27T08:38:31.912Z,102035.97
2022-07-27T08:43:54.768Z,102029.88
2022-07-27T08:49:17.990Z,102022.59
2022-07-27T08:54:41.377Z,102029.03
2022-07-27T09:00:03.740Z,102026.69
2022-07-27T09:05:27.651Z,102028.41
2022-07-27T09:11:00.566Z,102033.41
2022-07-27T09:17:03.105Z,102029.16
2022-07-27T09:22:12.198Z,102026.19
2022-07-27T09:27:33.925Z,102031.09
2022-07-27T09:33:01.590Z,102029.63
2022-07-27T09:38:25.301Z,102029.31
2022-07-27T09:44:29.055Z,102028.47
2022-07-27T09:49:34.401Z,102027.38
2022-07-27T09:55:05.463Z,102026.00
2022-07-27T10:00:27.459Z,102022.72
2022-07-27T10:05:49.200Z,102020.50
2022-07-27T10:11:12.036Z,102019.94
2022-07-27T10:16:35.258Z,102015.69
2022-07-27T10:21:57.024Z,102004.78
2022-07-27T10:27:29.381Z,102008.16
2022-07-27T10:32:51.161Z,102002.59
2022-07-27T10:38:18.295Z,102011.28
2022-07-27T10:43:40.162Z,102005.44
2022-07-27T10:49:18.118Z,102002.16
2022-07-27T10:54:40.305Z,101997.66
2022-07-27T11:00:13.536Z,101991.25
2022-07-27T11:11:24.699Z,101986.44
2022-07-27T11:16:55.588Z,101995.91
2022-07-27T11:22:53.667Z,102002.09
2022-07-27T11:28:12.973Z,102004.28
2022-07-27T11:33:35.010Z,102004.88
2022-07-27T11:38:56.722Z,102006.31
2022-07-27T11:44:18.628Z,101999.38
2022-07-27T11:49:40.490Z,101992.41
2022-07-27T11:55:02.863Z,101982.72
2022-07-27T12:00:24.668Z,101979.66
2022-07-27T12:05:51.533Z,101978.28
2022-07-27T12:11:13.280Z,101986.66
2022-07-27T12:16:35.295Z,101983.97
2022-07-27T12:21:57.064Z,101971.47
2022-07-27T12:27:19.010Z,101974.00
2022-07-27T12:32:45.155Z,101968.44
2022-07-27T12:38:09.354Z,101969.75
2022-07-27T12:43:31.096Z,101962.97
2022-07-27T12:48:52.833Z,101952.31
2022-07-27T12:54:14.537Z,101947.31
2022-07-27T12:59:36.280Z,101945.38
2022-07-27T13:04:58.013Z,101949.25
2022-07-27T13:10:20.219Z,101949.38
2022-07-27T13:15:41.909Z,101943.28
2022-07-27T13:21:03.760Z,101932.69
2022-07-27T13:26:25.494Z,101921.00
2022-07-27T13:31:55.101Z,101910.41
2022-07-27T13:37:19.159Z,101906.78
2022-07-27T13:42:40.877Z,101912.38
2022-07-27T13:48:02.583Z,101912.38
2022-07-27T13:53:26.476Z,101905.34
2022-07-27T13:58:48.174Z,101895.84
2022-07-27T14:04:13.164Z,101884.69
2022-07-27T14:10:04.218Z,101881.88
2022-07-27T14:15:26.713Z,101885.28
2022-07-27T14:20:48.483Z,101883.56
2022-07-27T14:26:10.532Z,101895.81
2022-07-27T14:31:35.126Z,101894.59
2022-07-27T14:36:57.068Z,101884.78
2022-07-27T14:42:23.923Z,101885.59
2022-07-27T14:47:46.245Z,101886.47
2022-07-27T14:53:08.087Z,101883.41
2022-07-27T14:58:29.765Z,101868.38
2022-07-27T15:03:55.514Z,101872.84
2022-07-27T15:09:17.415Z,101868.38
2022-07-27T15:14:43.558Z,101866.91
2022-07-27T15:20:08.465Z,101862.16
2022-07-27T15:25:30.315Z,101857.69
2022-07-27T15:30:52.058Z,101863.25
2022-07-27T15:36:32.566Z,101850.41
2022-07-27T15:41:55.412Z,101841.19
2022-07-27T15:47:17.115Z,101830.84
2022-07-27T15:52:38.793Z,101820.78
2022-07-27T15:58:00.558Z,101824.16
2022-07-27T16:03:23.175Z,101826.34
2022-07-27T16:08:47.424Z,101817.97
2022-07-27T16:14:09.174Z,101818.75
2022-07-27T16:19:30.906Z,101816.81
2022-07-27T16:24:52.684Z,101812.34
2022-07-27T16:30:20.508Z,101816.25
2022-07-27T16:35:44.303Z,101802.50
2022-07-27T16:41:09.488Z,101810.06
2022-07-27T16:46:31.301Z,101801.69
2022-07-27T16:51:53.051Z,101789.41
2022-07-27T16:57:15.994Z,101791.63
2022-07-27T17:02:37.674Z,101801.41
2022-07-27T17:07:59.735Z,101798.63
2022-07-27T17:13:21.484Z,101792.22
2022-07-27T17:18:43.170Z,101786.63
2022-07-27T17:24:05.326Z,101786.63
2022-07-27T17:29:27.067Z,101781.88
2022-07-27T17:34:48.797Z,101769.00
2022-07-27T17:40:10.548Z,101781.53
2022-07-27T17:45:32.395Z,101774.28
2022-07-27T17:50:54.117Z,101771.47
2022-07-27T17:56:15.908Z,101773.13
2022-07-27T18:01:47.224Z,101766.94
2022-07-27T18:07:10.185Z,101770.25
2022-07-27T18:12:31.931Z,101775.81
2022-07-27T18:17:53.671Z,101791.16
2022-07-27T18:23:16.233Z,101795.28
2022-07-27T18:28:40.075Z,101792.25
2022-07-27T18:34:03.132Z,101800.03
2022-07-27T18:39:32.427Z,101801.41
2022-07-27T18:44:56.566Z,101806.13
2022-07-27T18:50:18.381Z,101811.38
2022-07-27T18:55:40.403Z,101813.06
2022-07-27T19:01:02.411Z,101805.81
2022-07-27T19:06:24.244Z,101805.28
2022-07-27T19:11:46.453Z,101807.75
2022-07-27T19:17:10.754Z,101808.00
2022-07-27T19:22:37.445Z,101802.69
2022-07-27T19:28:00.055Z,101815.78
2022-07-27T19:33:21.803Z,101822.72
2022-07-27T19:38:43.552Z,101820.19
2022-07-27T19:44:06.938Z,101832.47
2022-07-27T19:49:28.789Z,101827.97
2022-07-27T19:54:50.523Z,101831.00
2022-07-27T20:00:13.111Z,101836.03
2022-07-27T20:05:35.066Z,101842.09
2022-07-27T20:10:56.797Z,101842.38
2022-07-27T20:16:18.735Z,101846.25
2022-07-27T20:21:40.587Z,101836.53
2022-07-27T20:27:02.308Z,101844.41
2022-07-27T20:32:24.100Z,101852.50
2022-07-27T20:37:46.848Z,101856.38
2022-07-27T20:43:08.628Z,101849.13
2022-07-27T20:48:30.328Z,101845.72
2022-07-27T20:53:52.492Z,101852.41
2022-07-27T20:59:16.945Z,101855.19
2022-07-27T21:04:39.099Z,101844.56
2022-07-27T21:10:00.811Z,101845.66
2022-07-27T21:15:22.569Z,101842.88
2022-07-27T21:20:55.592Z,101846.75
2022-07-27T21:26:18.405Z,101857.06
2022-07-27T21:31:40.709Z,101853.72
2022-07-27T21:37:02.729Z,101852.00
2022-07-27T21:42:24.431Z,101846.94
2022-07-27T21:47:46.161Z,101850.56
2022-07-27T21:53:07.910Z,101849.94
2022-07-27T21:58:29.569Z,101849.94
2022-07-27T22:03:51.466Z,101837.09
2022-07-27T22:09:14.366Z,101852.16
2022-07-27T22:14:36.021Z,101844.38
2022-07-27T22:19:57.735Z,101847.66
2022-07-27T22:25:19.800Z,101849.59
2022-07-27T22:30:41.684Z,101837.59
2022-07-27T22:36:03.559Z,101847.06
2022-07-27T22:41:25.349Z,101843.19
2022-07-27T22:46:47.040Z,101843.69
2022-07-27T22:52:08.773Z,101847.56
2022-07-27T22:57:30.501Z,101849.75
2022-07-27T23:02:52.239Z,101850.63
2022-07-27T23:08:13.943Z,101838.59
2022-07-27T23:13:35.792Z,101828.53
2022-07-27T23:18:57.627Z,101844.16
2022-07-27T23:24:28.807Z,101834.09
2022-07-27T23:29:50.722Z,101829.66
2022-07-27T23:35:12.476Z,101838.03
2022-07-27T23:40:34.267Z,101836.56
2022-07-27T23:45:55.965Z,101834.63
2022-07-27T23:51:18.685Z,101834.88
2022-07-27T23:56:40.488Z,101827.59
